sensor_id;sensor_type;location;lat;lon;timestamp;pressure;altitude;pressure_sealevel;temperature;humidity
6565;BME280;3316;44.118;27.258;2024-03-22T00:00:30;101485.91;;;3.88;100.00
6565;BME280;3316;44.118;27.258;2024-03-22T00:02:56;101508.31;;;3.83;100.00
6565;BME280;3316;44.118;27.258;2024-03-22T00:05:21;101485.81;;;3.85;100.00
6565;BME280;3316;44.118;27.258;2024-03-22T00:07:47;101471.66;;;3.76;100.00
6565;BME280;3316;44.118;27.258;2024-03-22T00:10:13;101495.44;;;3.88;100.00
6565;BME280;3316;44.118;27.258;2024-03-22T00:12:39;101498.25;;;3.94;100.00
6565;BME280;3316;44.118;27.258;2024-03-22T00:15:05;101506.72;;;3.88;100.00
6565;BME280;3316;44.118;27.258;2024-03-22T00:17:30;101475.22;;;3.79;100.00
6565;BME280;3316;44.118;27.258;2024-03-22T00:19:56;101465.25;;;3.65;100.00
6565;BME280;3316;44.118;27.258;2024-03-22T00:22:22;101495.22;;;3.80;100.00
6565;BME280;3316;44.118;27.258;2024-03-22T00:24:47;101490.88;;;3.81;100.00
6565;BME280;3316;44.118;27.258;2024-03-22T00:27:13;101499.34;;;3.74;100.00
6565;BME280;3316;44.118;27.258;2024-03-22T00:29:38;101493.28;;;3.75;100.00
6565;BME280;3316;44.118;27.258;2024-03-22T00:32:04;101491.44;;;3.71;100.00
6565;BME280;3316;44.118;27.258;2024-03-22T00:34:30;101503.69;;;3.75;100.00
6565;BME280;3316;44.118;27.258;2024-03-22T00:36:55;101492.13;;;3.65;100.00
6565;BME280;3316;44.118;27.258;2024-03-22T00:39:21;101492.34;;;3.73;100.00
6565;BME280;3316;44.118;27.258;2024-03-22T00:41:46;101487.03;;;3.68;100.00
6565;BME280;3316;44.118;27.258;2024-03-22T00:44:12;101456.75;;;3.43;100.00
6565;BME280;3316;44.118;27.258;2024-03-22T00:46:37;101482.72;;;3.42;100.00
6565;BME280;3316;44.118;27.258;2024-03-22T00:49:02;101490.53;;;3.42;100.00
6565;BME280;3316;44.118;27.258;2024-03-22T00:51:28;101501.38;;;3.55;100.00
6565;BME280;3316;44.118;27.258;2024-03-22T00:53:55;101493.97;;;3.41;100.00
6565;BME280;3316;44.118;27.258;2024-03-22T00:56:20;101429.56;;;3.06;100.00
6565;BME280;3316;44.118;27.258;2024-03-22T00:58:45;101486.94;;;3.38;100.00
6565;BME280;3316;44.118;27.258;2024-03-22T01:01:11;101485.00;;;3.31;100.00
6565;BME280;3316;44.118;27.258;2024-03-22T01:03:36;101485.63;;;3.24;100.00
6565;BME280;3316;44.118;27.258;2024-03-22T01:06:02;101465.41;;;3.16;100.00
6565;BME280;3316;44.118;27.258;2024-03-22T01:08:28;101491.94;;;3.32;100.00
6565;BME280;3316;44.118;27.258;2024-03-22T01:10:53;101445.09;;;3.04;100.00
6565;BME280;3316;44.118;27.258;2024-03-22T01:13:19;101489.19;;;3.28;100.00
6565;BME280;3316;44.118;27.258;2024-03-22T01:15:44;101458.88;;;3.02;100.00
6565;BME280;3316;44.118;27.258;2024-03-22T01:18:11;101494.09;;;3.19;100.00
6565;BME280;3316;44.118;27.258;2024-03-22T01:20:37;101486.50;;;3.25;100.00
6565;BME280;3316;44.118;27.258;2024-03-22T01:23:03;101487.31;;;3.24;100.00
6565;BME280;3316;44.118;27.258;2024-03-22T01:25:29;101497.69;;;3.22;100.00
6565;BME280;3316;44.118;27.258;2024-03-22T01:27:55;101499.31;;;3.19;100.00
6565;BME280;3316;44.118;27.258;2024-03-22T01:30:21;101476.13;;;3.00;100.00
6565;BME280;3316;44.118;27.258;2024-03-22T01:32:46;101488.50;;;3.07;100.00
6565;BME280;3316;44.118;27.258;2024-03-22T01:35:11;101502.31;;;3.04;100.00
6565;BME280;3316;44.118;27.258;2024-03-22T01:37:37;101494.38;;;3.01;100.00
6565;BME280;3316;44.118;27.258;2024-03-22T01:40:03;101393.94;;;2.51;100.00
6565;BME280;3316;44.118;27.258;2024-03-22T01:42:30;101501.53;;;3.08;100.00
6565;BME280;3316;44.118;27.258;2024-03-22T01:44:55;101478.41;;;2.91;100.00
6565;BME280;3316;44.118;27.258;2024-03-22T01:47:21;101467.94;;;2.88;100.00
6565;BME280;3316;44.118;27.258;2024-03-22T01:49:48;101477.28;;;2.83;100.00
6565;BME280;3316;44.118;27.258;2024-03-22T01:52:14;101496.03;;;2.99;100.00
6565;BME280;3316;44.118;27.258;2024-03-22T01:54:40;101502.19;;;3.01;100.00
6565;BME280;3316;44.118;27.258;2024-03-22T01:57:05;101509.81;;;2.97;100.00
6565;BME280;3316;44.118;27.258;2024-03-22T01:59:32;101498.91;;;2.82;100.00
6565;BME280;3316;44.118;27.258;2024-03-22T02:01:59;101513.03;;;2.90;100.00
6565;BME280;3316;44.118;27.258;2024-03-22T02:04:24;101507.28;;;2.98;100.00
6565;BME280;3316;44.118;27.258;2024-03-22T02:06:50;101512.50;;;2.98;100.00
6565;BME280;3316;44.118;27.258;2024-03-22T02:09:15;101508.41;;;3.06;100.00
6565;BME280;3316;44.118;27.258;2024-03-22T02:11:41;101484.44;;;2.90;100.00
6565;BME280;3316;44.118;27.258;2024-03-22T02:14:07;101503.63;;;2.93;100.00
6565;BME280;3316;44.118;27.258;2024-03-22T02:16:33;101511.56;;;2.96;100.00
6565;BME280;3316;44.118;27.258;2024-03-22T02:18:58;101506.44;;;2.99;100.00
6565;BME280;3316;44.118;27.258;2024-03-22T02:21:24;101489.56;;;2.87;100.00
6565;BME280;3316;44.118;27.258;2024-03-22T02:23:49;101501.81;;;2.91;100.00
6565;BME280;3316;44.118;27.258;2024-03-22T02:26:15;101515.09;;;2.98;100.00
6565;BME280;3316;44.118;27.258;2024-03-22T02:28:40;101446.28;;;2.63;100.00
6565;BME280;3316;44.118;27.258;2024-03-22T02:31:06;101507.16;;;2.95;100.00
6565;BME280;3316;44.118;27.258;2024-03-22T02:33:31;101501.53;;;2.83;100.00
6565;BME280;3316;44.118;27.258;2024-03-22T02:35:57;101515.72;;;2.93;100.00
6565;BME280;3316;44.118;27.258;2024-03-22T02:38:23;101504.06;;;2.80;100.00
6565;BME280;3316;44.118;27.258;2024-03-22T02:40:50;101533.31;;;3.00;100.00
6565;BME280;3316;44.118;27.258;2024-03-22T02:43:15;101476.66;;;2.64;100.00
6565;BME280;3316;44.118;27.258;2024-03-22T02:45:44;101535.06;;;3.01;100.00
6565;BME280;3316;44.118;27.258;2024-03-22T02:48:09;101532.47;;;3.01;100.00
6565;BME280;3316;44.118;27.258;2024-03-22T02:50:38;101455.97;;;2.67;100.00
6565;BME280;3316;44.118;27.258;2024-03-22T02:53:04;101485.91;;;2.82;100.00
6565;BME280;3316;44.118;27.258;2024-03-22T02:55:30;101501.72;;;2.88;100.00
6565;BME280;3316;44.118;27.258;2024-03-22T02:57:56;101513.69;;;2.83;100.00
6565;BME280;3316;44.118;27.258;2024-03-22T03:00:22;101495.88;;;2.69;100.00
6565;BME280;3316;44.118;27.258;2024-03-22T03:02:49;101485.25;;;2.63;100.00
6565;BME280;3316;44.118;27.258;2024-03-22T03:05:14;101488.03;;;2.68;100.00
6565;BME280;3316;44.118;27.258;2024-03-22T03:07:39;101522.06;;;2.76;100.00
6565;BME280;3316;44.118;27.258;2024-03-22T03:10:06;101448.06;;;2.39;100.00
6565;BME280;3316;44.118;27.258;2024-03-22T03:12:31;101522.91;;;2.75;100.00
6565;BME280;3316;44.118;27.258;2024-03-22T03:14:57;101518.75;;;2.80;100.00
6565;BME280;3316;44.118;27.258;2024-03-22T03:17:22;101459.22;;;2.37;100.00
6565;BME280;3316;44.118;27.258;2024-03-22T03:19:48;101522.88;;;2.73;100.00
6565;BME280;3316;44.118;27.258;2024-03-22T03:22:13;101492.97;;;2.60;100.00
6565;BME280;3316;44.118;27.258;2024-03-22T03:24:39;101525.38;;;2.71;100.00
6565;BME280;3316;44.118;27.258;2024-03-22T03:27:04;101524.63;;;2.74;100.00
6565;BME280;3316;44.118;27.258;2024-03-22T03:29:30;101528.00;;;2.71;100.00
6565;BME280;3316;44.118;27.258;2024-03-22T03:31:55;101498.88;;;2.56;100.00
6565;BME280;3316;44.118;27.258;2024-03-22T03:34:21;101529.72;;;2.71;100.00
6565;BME280;3316;44.118;27.258;2024-03-22T03:36:47;101525.50;;;2.75;100.00
6565;BME280;3316;44.118;27.258;2024-03-22T03:39:12;101506.16;;;2.66;100.00
6565;BME280;3316;44.118;27.258;2024-03-22T03:41:38;101519.38;;;2.72;100.00
6565;BME280;3316;44.118;27.258;2024-03-22T03:44:04;101520.16;;;2.70;100.00
6565;BME280;3316;44.118;27.258;2024-03-22T03:46:29;101524.03;;;2.57;100.00
6565;BME280;3316;44.118;27.258;2024-03-22T03:48:55;101519.03;;;2.63;100.00
6565;BME280;3316;44.118;27.258;2024-03-22T03:51:20;101517.16;;;2.59;100.00
6565;BME280;3316;44.118;27.258;2024-03-22T03:53:45;101516.06;;;2.53;100.00
6565;BME280;3316;44.118;27.258;2024-03-22T03:56:11;101519.59;;;2.55;100.00
6565;BME280;3316;44.118;27.258;2024-03-22T03:58:36;101508.09;;;2.48;100.00
6565;BME280;3316;44.118;27.258;2024-03-22T04:01:09;101515.81;;;2.45;100.00
6565;BME280;3316;44.118;27.258;2024-03-22T04:03:34;101503.09;;;2.29;100.00
6565;BME280;3316;44.118;27.258;2024-03-22T04:06:00;101479.06;;;2.13;100.00
6565;BME280;3316;44.118;27.258;2024-03-22T04:08:26;101525.47;;;2.26;100.00
6565;BME280;3316;44.118;27.258;2024-03-22T04:10:55;101527.22;;;2.27;100.00
6565;BME280;3316;44.118;27.258;2024-03-22T04:13:24;101518.25;;;2.19;100.00
6565;BME280;3316;44.118;27.258;2024-03-22T04:15:50;101500.75;;;2.13;100.00
6565;BME280;3316;44.118;27.258;2024-03-22T04:18:15;101534.53;;;2.37;100.00
6565;BME280;3316;44.118;27.258;2024-03-22T04:20:41;101541.41;;;2.36;100.00
6565;BME280;3316;44.118;27.258;2024-03-22T04:23:06;101473.13;;;2.15;100.00
6565;BME280;3316;44.118;27.258;2024-03-22T04:25:31;101541.88;;;2.72;100.00
6565;BME280;3316;44.118;27.258;2024-03-22T04:27:57;101515.84;;;2.96;100.00
6565;BME280;3316;44.118;27.258;2024-03-22T04:30:22;101556.66;;;3.75;100.00
6565;BME280;3316;44.118;27.258;2024-03-22T04:32:48;101530.13;;;3.87;100.00
6565;BME280;3316;44.118;27.258;2024-03-22T04:35:13;101567.19;;;4.34;100.00
6565;BME280;3316;44.118;27.258;2024-03-22T04:37:39;101542.44;;;4.20;100.00
6565;BME280;3316;44.118;27.258;2024-03-22T04:40:05;101571.25;;;3.98;100.00
6565;BME280;3316;44.118;27.258;2024-03-22T04:42:31;101567.06;;;3.75;100.00
6565;BME280;3316;44.118;27.258;2024-03-22T04:44:56;101580.72;;;3.68;100.00
6565;BME280;3316;44.118;27.258;2024-03-22T04:47:23;101576.22;;;4.47;100.00
6565;BME280;3316;44.118;27.258;2024-03-22T04:49:49;101577.28;;;5.14;100.00
6565;BME280;3316;44.118;27.258;2024-03-22T04:52:14;101563.28;;;4.80;100.00
6565;BME280;3316;44.118;27.258;2024-03-22T04:54:40;101598.97;;;4.52;100.00
6565;BME280;3316;44.118;27.258;2024-03-22T04:57:05;101578.56;;;4.10;100.00
6565;BME280;3316;44.118;27.258;2024-03-22T04:59:30;101599.34;;;3.80;100.00
6565;BME280;3316;44.118;27.258;2024-03-22T05:01:56;101599.50;;;3.59;100.00
6565;BME280;3316;44.118;27.258;2024-03-22T05:04:21;101597.59;;;3.54;100.00
6565;BME280;3316;44.118;27.258;2024-03-22T05:06:47;101560.09;;;3.22;100.00
6565;BME280;3316;44.118;27.258;2024-03-22T05:09:12;101594.31;;;3.34;100.00
6565;BME280;3316;44.118;27.258;2024-03-22T05:11:37;101582.81;;;3.28;100.00
6565;BME280;3316;44.118;27.258;2024-03-22T05:14:03;101551.28;;;3.17;100.00
6565;BME280;3316;44.118;27.258;2024-03-22T05:16:28;101585.59;;;3.32;100.00
6565;BME280;3316;44.118;27.258;2024-03-22T05:18:54;101515.84;;;2.96;100.00
6565;BME280;3316;44.118;27.258;2024-03-22T05:21:19;101588.16;;;3.31;100.00
6565;BME280;3316;44.118;27.258;2024-03-22T05:23:45;101584.44;;;3.24;100.00
6565;BME280;3316;44.118;27.258;2024-03-22T05:26:11;101582.31;;;3.38;100.00
6565;BME280;3316;44.118;27.258;2024-03-22T05:28:36;101555.31;;;3.34;100.00
6565;BME280;3316;44.118;27.258;2024-03-22T05:31:01;101594.16;;;3.55;100.00
6565;BME280;3316;44.118;27.258;2024-03-22T05:33:27;101553.84;;;3.42;100.00
6565;BME280;3316;44.118;27.258;2024-03-22T05:35:53;101583.97;;;3.36;100.00
6565;BME280;3316;44.118;27.258;2024-03-22T05:38:19;101548.53;;;3.14;100.00
6565;BME280;3316;44.118;27.258;2024-03-22T05:40:44;101550.66;;;3.26;100.00
6565;BME280;3316;44.118;27.258;2024-03-22T05:43:13;101529.56;;;3.17;100.00
6565;BME280;3316;44.118;27.258;2024-03-22T05:45:38;101488.63;;;2.85;100.00
6565;BME280;3316;44.118;27.258;2024-03-22T05:48:04;101591.41;;;3.50;100.00
6565;BME280;3316;44.118;27.258;2024-03-22T05:50:29;101599.00;;;3.44;100.00
6565;BME280;3316;44.118;27.258;2024-03-22T05:52:55;101595.63;;;3.47;100.00
6565;BME280;3316;44.118;27.258;2024-03-22T05:55:20;101533.97;;;3.18;100.00
6565;BME280;3316;44.118;27.258;2024-03-22T05:57:46;101591.25;;;3.98;100.00
6565;BME280;3316;44.118;27.258;2024-03-22T06:00:11;101545.47;;;3.51;100.00
6565;BME280;3316;44.118;27.258;2024-03-22T06:02:38;101614.22;;;3.84;100.00
6565;BME280;3316;44.118;27.258;2024-03-22T06:05:04;101609.50;;;3.99;100.00
6565;BME280;3316;44.118;27.258;2024-03-22T06:07:30;101621.25;;;4.13;100.00
6565;BME280;3316;44.118;27.258;2024-03-22T06:10:08;101613.28;;;4.09;100.00
6565;BME280;3316;44.118;27.258;2024-03-22T06:12:35;101627.41;;;3.90;100.00
6565;BME280;3316;44.118;27.258;2024-03-22T06:15:00;101611.75;;;3.62;100.00
6565;BME280;3316;44.118;27.258;2024-03-22T06:17:26;101621.72;;;3.75;100.00
6565;BME280;3316;44.118;27.258;2024-03-22T06:19:51;101638.47;;;3.83;100.00
6565;BME280;3316;44.118;27.258;2024-03-22T06:22:17;101634.13;;;3.82;100.00
6565;BME280;3316;44.118;27.258;2024-03-22T06:24:44;101635.19;;;3.89;100.00
6565;BME280;3316;44.118;27.258;2024-03-22T06:27:10;101601.22;;;3.59;100.00
6565;BME280;3316;44.118;27.258;2024-03-22T06:29:35;101632.81;;;3.96;100.00
6565;BME280;3316;44.118;27.258;2024-03-22T06:32:01;101545.31;;;3.46;100.00
6565;BME280;3316;44.118;27.258;2024-03-22T06:34:26;101569.47;;;3.96;100.00
6565;BME280;3316;44.118;27.258;2024-03-22T06:36:52;101617.69;;;4.39;100.00
6565;BME280;3316;44.118;27.258;2024-03-22T06:39:17;101637.59;;;4.66;100.00
6565;BME280;3316;44.118;27.258;2024-03-22T06:41:42;101575.81;;;4.33;100.00
6565;BME280;3316;44.118;27.258;2024-03-22T06:44:08;101647.13;;;4.65;100.00
6565;BME280;3316;44.118;27.258;2024-03-22T06:46:37;101639.91;;;4.85;100.00
6565;BME280;3316;44.118;27.258;2024-03-22T06:49:03;101645.91;;;4.82;100.00
6565;BME280;3316;44.118;27.258;2024-03-22T06:51:28;101650.03;;;4.46;100.00
6565;BME280;3316;44.118;27.258;2024-03-22T06:53:53;101640.59;;;4.49;100.00
6565;BME280;3316;44.118;27.258;2024-03-22T06:56:19;101651.47;;;4.65;100.00
6565;BME280;3316;44.118;27.258;2024-03-22T06:58:44;101627.88;;;4.60;100.00
6565;BME280;3316;44.118;27.258;2024-03-22T07:01:10;101656.03;;;4.72;100.00
6565;BME280;3316;44.118;27.258;2024-03-22T07:03:35;101655.44;;;4.52;100.00
6565;BME280;3316;44.118;27.258;2024-03-22T07:06:01;101643.38;;;4.56;100.00
6565;BME280;3316;44.118;27.258;2024-03-22T07:08:26;101629.28;;;4.49;100.00
6565;BME280;3316;44.118;27.258;2024-03-22T07:10:52;101595.63;;;4.27;100.00
6565;BME280;3316;44.118;27.258;2024-03-22T07:13:20;101654.22;;;4.69;100.00
6565;BME280;3316;44.118;27.258;2024-03-22T07:15:46;101658.38;;;4.92;100.00
6565;BME280;3316;44.118;27.258;2024-03-22T07:18:13;101658.78;;;5.07;100.00
6565;BME280;3316;44.118;27.258;2024-03-22T07:20:39;101629.91;;;5.00;100.00
6565;BME280;3316;44.118;27.258;2024-03-22T07:23:04;101640.78;;;5.15;100.00
6565;BME280;3316;44.118;27.258;2024-03-22T07:25:30;101657.47;;;5.21;100.00
6565;BME280;3316;44.118;27.258;2024-03-22T07:27:55;101666.22;;;5.23;100.00
6565;BME280;3316;44.118;27.258;2024-03-22T07:30:21;101669.53;;;5.18;100.00
6565;BME280;3316;44.118;27.258;2024-03-22T07:32:47;101673.84;;;5.16;100.00
6565;BME280;3316;44.118;27.258;2024-03-22T07:35:12;101673.09;;;5.21;100.00
6565;BME280;3316;44.118;27.258;2024-03-22T07:37:38;101633.41;;;5.00;100.00
6565;BME280;3316;44.118;27.258;2024-03-22T07:40:03;101675.06;;;5.28;100.00
6565;BME280;3316;44.118;27.258;2024-03-22T07:42:31;101685.81;;;5.40;100.00
6565;BME280;3316;44.118;27.258;2024-03-22T07:44:57;101672.84;;;5.42;100.00
6565;BME280;3316;44.118;27.258;2024-03-22T07:47:22;101663.47;;;5.19;100.00
6565;BME280;3316;44.118;27.258;2024-03-22T07:49:48;101647.56;;;5.10;100.00
6565;BME280;3316;44.118;27.258;2024-03-22T07:52:13;101681.16;;;5.29;100.00
6565;BME280;3316;44.118;27.258;2024-03-22T07:54:38;101677.16;;;5.41;100.00
6565;BME280;3316;44.118;27.258;2024-03-22T07:57:04;101662.13;;;5.33;100.00
6565;BME280;3316;44.118;27.258;2024-03-22T07:59:29;101645.69;;;5.35;100.00
6565;BME280;3316;44.118;27.258;2024-03-22T08:01:55;101686.13;;;5.51;100.00
6565;BME280;3316;44.118;27.258;2024-03-22T08:04:22;101693.09;;;5.52;100.00
6565;BME280;3316;44.118;27.258;2024-03-22T08:06:47;101694.00;;;5.54;100.00
6565;BME280;3316;44.118;27.258;2024-03-22T08:09:13;101628.72;;;5.20;100.00
6565;BME280;3316;44.118;27.258;2024-03-22T08:11:38;101683.16;;;5.39;100.00
6565;BME280;3316;44.118;27.258;2024-03-22T08:14:04;101689.44;;;5.46;100.00
6565;BME280;3316;44.118;27.258;2024-03-22T08:16:30;101677.50;;;5.54;100.00
6565;BME280;3316;44.118;27.258;2024-03-22T08:18:55;101670.69;;;5.27;100.00
6565;BME280;3316;44.118;27.258;2024-03-22T08:21:22;101684.22;;;5.14;100.00
6565;BME280;3316;44.118;27.258;2024-03-22T08:23:49;101688.63;;;5.17;100.00
6565;BME280;3316;44.118;27.258;2024-03-22T08:26:14;101650.41;;;5.19;100.00
6565;BME280;3316;44.118;27.258;2024-03-22T08:28:40;101687.19;;;5.58;100.00
6565;BME280;3316;44.118;27.258;2024-03-22T08:31:05;101704.22;;;5.45;100.00
6565;BME280;3316;44.118;27.258;2024-03-22T08:33:31;101692.06;;;5.46;100.00
6565;BME280;3316;44.118;27.258;2024-03-22T08:35:56;101693.22;;;5.88;100.00
6565;BME280;3316;44.118;27.258;2024-03-22T08:38:22;101706.97;;;6.16;100.00
6565;BME280;3316;44.118;27.258;2024-03-22T08:40:50;101696.41;;;6.48;100.00
6565;BME280;3316;44.118;27.258;2024-03-22T08:43:15;101690.53;;;6.56;100.00
6565;BME280;3316;44.118;27.258;2024-03-22T08:45:41;101710.63;;;6.59;100.00
6565;BME280;3316;44.118;27.258;2024-03-22T08:48:07;101705.91;;;6.44;100.00
6565;BME280;3316;44.118;27.258;2024-03-22T08:50:32;101703.41;;;6.47;100.00
6565;BME280;3316;44.118;27.258;2024-03-22T08:52:58;101712.03;;;6.82;100.00
6565;BME280;3316;44.118;27.258;2024-03-22T08:55:23;101696.91;;;6.69;100.00
6565;BME280;3316;44.118;27.258;2024-03-22T08:57:49;101715.38;;;6.75;100.00
6565;BME280;3316;44.118;27.258;2024-03-22T09:00:14;101680.06;;;6.56;100.00
6565;BME280;3316;44.118;27.258;2024-03-22T09:02:40;101703.53;;;6.92;100.00
6565;BME280;3316;44.118;27.258;2024-03-22T09:05:05;101606.59;;;7.29;100.00
6565;BME280;3316;44.118;27.258;2024-03-22T09:07:33;101684.41;;;8.35;100.00
6565;BME280;3316;44.118;27.258;2024-03-22T09:09:59;101708.28;;;8.54;100.00
6565;BME280;3316;44.118;27.258;2024-03-22T09:12:24;101669.16;;;8.14;100.00
6565;BME280;3316;44.118;27.258;2024-03-22T09:14:51;101705.78;;;8.09;100.00
6565;BME280;3316;44.118;27.258;2024-03-22T09:17:17;101706.34;;;7.90;100.00
6565;BME280;3316;44.118;27.258;2024-03-22T09:19:43;101706.75;;;8.13;100.00
6565;BME280;3316;44.118;27.258;2024-03-22T09:22:08;101704.47;;;8.92;100.00
6565;BME280;3316;44.118;27.258;2024-03-22T09:24:34;101698.31;;;9.61;100.00
6565;BME280;3316;44.118;27.258;2024-03-22T09:26:59;101708.31;;;9.98;100.00
6565;BME280;3316;44.118;27.258;2024-03-22T09:29:25;101706.88;;;9.45;100.00
6565;BME280;3316;44.118;27.258;2024-03-22T09:31:50;101691.41;;;9.73;100.00
6565;BME280;3316;44.118;27.258;2024-03-22T09:34:16;101679.47;;;10.07;100.00
6565;BME280;3316;44.118;27.258;2024-03-22T09:36:41;101701.56;;;10.26;100.00
6565;BME280;3316;44.118;27.258;2024-03-22T09:39:07;101675.22;;;10.24;100.00
6565;BME280;3316;44.118;27.258;2024-03-22T09:41:41;101625.25;;;10.20;100.00
6565;BME280;3316;44.118;27.258;2024-03-22T09:44:14;101703.06;;;11.30;100.00
6565;BME280;3316;44.118;27.258;2024-03-22T09:46:43;101671.34;;;11.06;100.00
6565;BME280;3316;44.118;27.258;2024-03-22T09:49:10;101700.44;;;11.36;100.00
6565;BME280;3316;44.118;27.258;2024-03-22T09:51:42;101693.50;;;11.64;100.00
6565;BME280;3316;44.118;27.258;2024-03-22T09:54:11;101678.56;;;11.60;100.00
6565;BME280;3316;44.118;27.258;2024-03-22T09:56:40;101685.50;;;11.41;100.00
6565;BME280;3316;44.118;27.258;2024-03-22T09:59:06;101658.25;;;11.32;100.00
6565;BME280;3316;44.118;27.258;2024-03-22T10:01:37;101668.94;;;11.76;100.00
6565;BME280;3316;44.118;27.258;2024-03-22T10:04:05;101667.19;;;11.70;100.00
6565;BME280;3316;44.118;27.258;2024-03-22T10:06:30;101646.09;;;11.73;100.00
6565;BME280;3316;44.118;27.258;2024-03-22T10:09:00;101668.06;;;11.74;100.00
6565;BME280;3316;44.118;27.258;2024-03-22T10:11:27;101642.56;;;11.92;100.00
6565;BME280;3316;44.118;27.258;2024-03-22T10:13:53;101654.88;;;11.80;100.00
6565;BME280;3316;44.118;27.258;2024-03-22T10:16:23;101659.28;;;11.93;100.00
6565;BME280;3316;44.118;27.258;2024-03-22T10:18:48;101629.38;;;11.80;100.00
6565;BME280;3316;44.118;27.258;2024-03-22T10:21:17;101649.59;;;11.84;100.00
6565;BME280;3316;44.118;27.258;2024-03-22T10:23:43;101643.44;;;11.88;100.00
6565;BME280;3316;44.118;27.258;2024-03-22T10:26:09;101617.09;;;11.84;100.00
6565;BME280;3316;44.118;27.258;2024-03-22T10:28:35;101632.88;;;12.33;100.00
6565;BME280;3316;44.118;27.258;2024-03-22T10:31:01;101640.81;;;12.21;100.00
6565;BME280;3316;44.118;27.258;2024-03-22T10:33:28;101634.63;;;12.27;100.00
6565;BME280;3316;44.118;27.258;2024-03-22T10:35:59;101631.13;;;12.40;100.00
6565;BME280;3316;44.118;27.258;2024-03-22T10:38:25;101621.41;;;12.51;100.00
6565;BME280;3316;44.118;27.258;2024-03-22T10:40:51;101611.75;;;12.29;100.00
6565;BME280;3316;44.118;27.258;2024-03-22T10:43:16;101571.31;;;12.27;100.00
6565;BME280;3316;44.118;27.258;2024-03-22T10:45:42;101615.22;;;12.50;100.00
6565;BME280;3316;44.118;27.258;2024-03-22T10:48:11;101600.28;;;12.54;100.00
6565;BME280;3316;44.118;27.258;2024-03-22T10:50:41;101595.03;;;12.39;98.66
6565;BME280;3316;44.118;27.258;2024-03-22T10:53:13;101612.47;;;12.84;93.41
6565;BME280;3316;44.118;27.258;2024-03-22T10:55:45;101598.59;;;12.09;97.15
6565;BME280;3316;44.118;27.258;2024-03-22T10:58:18;101581.03;;;11.78;100.00
6565;BME280;3316;44.118;27.258;2024-03-22T11:00:46;101603.00;;;12.22;98.33
6565;BME280;3316;44.118;27.258;2024-03-22T11:03:12;101598.53;;;12.45;95.65
6565;BME280;3316;44.118;27.258;2024-03-22T11:05:48;101595.91;;;12.44;94.92
6565;BME280;3316;44.118;27.258;2024-03-22T11:08:26;101583.66;;;12.07;97.36
6565;BME280;3316;44.118;27.258;2024-03-22T11:10:53;101597.72;;;11.94;99.91
6565;BME280;3316;44.118;27.258;2024-03-22T11:13:19;101600.38;;;12.03;100.00
6565;BME280;3316;44.118;27.258;2024-03-22T11:15:51;101592.47;;;12.15;100.00
6565;BME280;3316;44.118;27.258;2024-03-22T11:18:17;101589.81;;;11.67;98.61
6565;BME280;3316;44.118;27.258;2024-03-22T11:20:44;101592.44;;;11.63;100.00
6565;BME280;3316;44.118;27.258;2024-03-22T11:23:12;101583.63;;;12.23;98.23
6565;BME280;3316;44.118;27.258;2024-03-22T11:25:38;101581.81;;;12.51;97.58
6565;BME280;3316;44.118;27.258;2024-03-22T11:28:03;101583.63;;;12.34;98.16
6565;BME280;3316;44.118;27.258;2024-03-22T11:30:31;101581.03;;;12.14;98.40
6565;BME280;3316;44.118;27.258;2024-03-22T11:32:56;101578.38;;;11.98;100.00
6565;BME280;3316;44.118;27.258;2024-03-22T11:35:22;101572.25;;;12.11;100.00
6565;BME280;3316;44.118;27.258;2024-03-22T11:37:49;101568.69;;;12.18;99.90
6565;BME280;3316;44.118;27.258;2024-03-22T11:40:15;101565.97;;;12.54;96.45
6565;BME280;3316;44.118;27.258;2024-03-22T11:42:47;101569.47;;;12.54;96.35
6565;BME280;3316;44.118;27.258;2024-03-22T11:45:15;101559.81;;;12.44;95.86
6565;BME280;3316;44.118;27.258;2024-03-22T11:47:41;101561.63;;;12.32;97.75
6565;BME280;3316;44.118;27.258;2024-03-22T11:50:07;101565.84;;;12.83;95.19
6565;BME280;3316;44.118;27.258;2024-03-22T11:52:34;101558.72;;;12.97;89.33
6565;BME280;3316;44.118;27.258;2024-03-22T11:55:01;101556.94;;;13.06;90.18
6565;BME280;3316;44.118;27.258;2024-03-22T11:57:28;101551.78;;;12.75;91.50
6565;BME280;3316;44.118;27.258;2024-03-22T11:59:59;101526.22;;;12.80;87.69
6565;BME280;3316;44.118;27.258;2024-03-22T12:02:25;101549.78;;;13.23;86.95
6565;BME280;3316;44.118;27.258;2024-03-22T12:04:50;101504.06;;;13.14;83.47
6565;BME280;3316;44.118;27.258;2024-03-22T12:07:16;101536.28;;;13.63;81.81
6565;BME280;3316;44.118;27.258;2024-03-22T12:09:43;101518.69;;;13.54;75.10
6565;BME280;3316;44.118;27.258;2024-03-22T12:12:10;101541.63;;;13.55;76.63
6565;BME280;3316;44.118;27.258;2024-03-22T12:14:36;101464.56;;;12.88;78.56
6565;BME280;3316;44.118;27.258;2024-03-22T12:17:02;101502.22;;;13.23;81.20
6565;BME280;3316;44.118;27.258;2024-03-22T12:19:28;101503.94;;;13.24;80.66
6565;BME280;3316;44.118;27.258;2024-03-22T12:21:53;101531.22;;;13.32;84.01
6565;BME280;3316;44.118;27.258;2024-03-22T12:24:19;101529.63;;;13.10;86.46
6565;BME280;3316;44.118;27.258;2024-03-22T12:26:44;101530.63;;;12.82;92.40
6565;BME280;3316;44.118;27.258;2024-03-22T12:29:12;101514.94;;;12.52;99.14
6565;BME280;3316;44.118;27.258;2024-03-22T12:31:37;101514.09;;;12.35;100.00
6565;BME280;3316;44.118;27.258;2024-03-22T12:34:03;101515.91;;;12.25;100.00
6565;BME280;3316;44.118;27.258;2024-03-22T12:36:29;101502.69;;;12.31;100.00
6565;BME280;3316;44.118;27.258;2024-03-22T12:38:54;101511.47;;;12.39;100.00
6565;BME280;3316;44.118;27.258;2024-03-22T12:41:19;101483.19;;;12.66;100.00
6565;BME280;3316;44.118;27.258;2024-03-22T12:43:45;101505.13;;;12.77;98.91
6565;BME280;3316;44.118;27.258;2024-03-22T12:46:11;101492.88;;;12.65;98.80
6565;BME280;3316;44.118;27.258;2024-03-22T12:48:36;101500.88;;;12.50;95.64
6565;BME280;3316;44.118;27.258;2024-03-22T12:51:02;101476.31;;;12.25;96.43
6565;BME280;3316;44.118;27.258;2024-03-22T12:53:27;101502.59;;;12.51;95.92